Terminal Aerodrome Forecast
Issued by NWS

Home | Current Version | Previous Version | Text Only | Print | Product List | Glossary On
Versions: 1 2 3 4 5 6 7 8 9 10 11 12
529
FTAK31 PAJN 211721
TAFAPG
TAF
PAPG 211721Z 2118/2218 24004KT P6SM SCT060
     FM212100 04003KT P6SM OVC060
     FM220900 24004KT P6SM SCT060
      AMD LTD TO CLD VIS AND WIND 2206/2215=

USA.gov is the U.S. government's official web portal to all federal, state and local government web resources and services.